createdAt,value
2023-04-25T00:00:31.319Z,98.85
2023-04-25T00:04:35.002Z,98.92
2023-04-25T00:08:37.234Z,100.00
2023-04-25T00:12:39.967Z,100.00
2023-04-25T00:16:42.152Z,100.00
2023-04-25T00:20:47.397Z,100.00
2023-04-25T00:24:49.455Z,99.91
2023-04-25T00:28:51.542Z,99.86
2023-04-25T00:32:54.235Z,99.56
2023-04-25T00:36:56.433Z,99.65
2023-04-25T00:40:58.578Z,99.65
2023-04-25T00:45:01.750Z,99.61
2023-04-25T00:49:03.784Z,99.22
2023-04-25T00:53:06.159Z,98.80
2023-04-25T00:57:08.302Z,98.59
2023-04-25T01:01:11.789Z,97.76
2023-04-25T01:05:14.412Z,96.72
2023-04-25T01:09:17.045Z,96.51
2023-04-25T01:13:19.123Z,95.50
2023-04-25T01:17:22.080Z,94.91
2023-04-25T01:21:28.112Z,95.19
2023-04-25T01:25:31.750Z,93.75
2023-04-25T01:29:35.568Z,93.00
2023-04-25T01:33:38.312Z,91.84
2023-04-25T01:37:41.896Z,91.65
2023-04-25T01:41:45.589Z,91.87
2023-04-25T01:45:48.913Z,91.79
2023-04-25T01:49:51.011Z,92.24
2023-04-25T01:53:53.474Z,92.48
2023-04-25T01:57:55.577Z,92.60
2023-04-25T02:02:06.609Z,93.39
2023-04-25T02:06:10.783Z,93.64
2023-04-25T02:10:17.749Z,93.31
2023-04-25T02:14:30.707Z,93.19
2023-04-25T02:18:38.496Z,93.64
2023-04-25T02:22:43.253Z,93.83
2023-04-25T02:26:45.419Z,94.43
2023-04-25T02:30:48.685Z,94.70
2023-04-25T02:34:50.884Z,94.68
2023-04-25T02:38:53.077Z,93.38
2023-04-25T02:42:56.554Z,92.95
2023-04-25T02:46:58.576Z,92.33
2023-04-25T02:51:00.689Z,91.07
2023-04-25T02:55:03.197Z,90.97
2023-04-25T02:59:06.496Z,90.82
2023-04-25T03:03:08.650Z,90.92
2023-04-25T03:07:11.872Z,90.99
2023-04-25T03:11:13.984Z,94.68
2023-04-25T03:15:17.660Z,92.68
2023-04-25T03:19:19.917Z,92.97
2023-04-25T03:23:22.176Z,93.81
2023-04-25T03:27:24.398Z,94.27
2023-04-25T03:31:27.115Z,95.21
2023-04-25T03:35:29.561Z,96.31
2023-04-25T03:39:31.953Z,96.96
2023-04-25T03:43:34.519Z,98.01
2023-04-25T03:47:41.330Z,98.50
2023-04-25T03:51:43.455Z,98.94
2023-04-25T03:55:45.607Z,99.35
2023-04-25T03:59:48.880Z,99.84
2023-04-25T04:03:52.130Z,99.60
2023-04-25T04:07:55.485Z,99.09
2023-04-25T04:11:58.164Z,98.73
2023-04-25T04:16:00.675Z,98.90
2023-04-25T04:20:04.556Z,98.68
2023-04-25T04:24:07.799Z,98.60
2023-04-25T04:28:23.079Z,98.93
2023-04-25T04:32:31.479Z,99.41
2023-04-25T04:36:34.460Z,98.87
2023-04-25T04:40:36.559Z,99.11
2023-04-25T04:44:45.672Z,97.44
2023-04-25T04:49:08.012Z,97.03
2023-04-25T04:53:16.183Z,95.22
2023-04-25T04:57:33.987Z,96.47
2023-04-25T05:01:48.010Z,94.15
2023-04-25T05:06:01.889Z,92.52
2023-04-25T05:10:21.829Z,91.37
2023-04-25T05:14:32.645Z,91.63
2023-04-25T05:18:48.609Z,90.94
2023-04-25T05:23:19.269Z,89.66
2023-04-25T05:27:43.014Z,88.22
2023-04-25T05:32:03.591Z,88.16
2023-04-25T05:36:07.388Z,79.61
2023-04-25T05:40:10.563Z,61.89
2023-04-25T05:44:32.137Z,64.28
2023-04-25T05:48:55.337Z,63.52
2023-04-25T05:53:12.640Z,52.56
2023-04-25T05:57:25.229Z,52.32
2023-04-25T06:01:27.963Z,55.19
2023-04-25T06:05:30.596Z,59.65
2023-04-25T06:09:32.687Z,64.16
2023-04-25T06:13:34.743Z,66.33
2023-04-25T06:17:37.145Z,67.57
2023-04-25T06:21:44.367Z,69.18
2023-04-25T06:25:46.621Z,70.49
2023-04-25T06:29:49.047Z,71.43
2023-04-25T06:33:51.799Z,71.84
2023-04-25T06:37:54.252Z,71.33
2023-04-25T06:41:58.516Z,67.50
2023-04-25T06:46:29.670Z,67.46
2023-04-25T06:50:34.939Z,58.67
2023-04-25T06:54:37.575Z,56.52
2023-04-25T06:58:52.633Z,53.36
2023-04-25T07:03:04.089Z,52.34
2023-04-25T07:07:06.428Z,53.64
2023-04-25T07:11:15.474Z,57.05
2023-04-25T07:15:17.533Z,59.67
2023-04-25T07:19:22.950Z,62.88
2023-04-25T07:23:25.174Z,70.17
2023-04-25T07:27:27.694Z,65.29
2023-04-25T07:31:34.364Z,65.66
2023-04-25T07:35:36.515Z,65.29
2023-04-25T07:39:38.581Z,65.48
2023-04-25T07:43:41.511Z,65.84
2023-04-25T07:47:43.699Z,64.44
2023-04-25T07:51:45.991Z,65.66
2023-04-25T07:55:51.612Z,66.54
2023-04-25T07:59:54.416Z,64.47
2023-04-25T08:03:58.101Z,66.92
2023-04-25T08:08:19.738Z,66.31
2023-04-25T08:12:23.470Z,63.90
2023-04-25T08:16:26.364Z,65.02
2023-04-25T08:20:29.088Z,63.58
2023-04-25T08:24:33.330Z,63.85
2023-04-25T08:28:35.761Z,62.81
2023-04-25T08:32:39.697Z,60.89
2023-04-25T08:37:00.795Z,59.97
2023-04-25T08:41:16.295Z,60.61
2023-04-25T08:45:18.339Z,61.15
2023-04-25T08:49:20.711Z,60.82
2023-04-25T08:53:28.234Z,60.57
2023-04-25T08:57:32.222Z,57.77
2023-04-25T09:01:35.987Z,58.51
2023-04-25T09:05:38.974Z,57.30
2023-04-25T09:09:41.206Z,54.80
2023-04-25T09:13:43.818Z,55.39
2023-04-25T09:18:08.496Z,53.11
2023-04-25T09:22:19.330Z,52.77
2023-04-25T09:26:22.329Z,52.53
2023-04-25T09:30:34.982Z,51.29
2023-04-25T09:34:44.773Z,52.74
2023-04-25T09:38:48.171Z,52.37
2023-04-25T09:43:24.271Z,53.67
2023-04-25T09:47:27.798Z,57.11
2023-04-25T09:51:31.226Z,61.03
2023-04-25T09:55:36.979Z,62.93
2023-04-25T09:59:40.697Z,65.02
2023-04-25T10:03:44.297Z,64.97
2023-04-25T10:08:13.528Z,63.55
2023-04-25T10:12:15.734Z,62.51
2023-04-25T10:16:18.737Z,62.79
2023-04-25T10:20:20.918Z,59.87
2023-04-25T10:24:23.772Z,59.79
2023-04-25T10:28:26.114Z,60.92
2023-04-25T10:32:30.064Z,57.29
2023-04-25T10:36:33.463Z,54.93
2023-04-25T10:40:35.805Z,52.33
2023-04-25T10:44:38.994Z,50.58
2023-04-25T10:48:47.863Z,50.03
2023-04-25T10:52:49.944Z,49.84
2023-04-25T10:56:52.604Z,50.11
2023-04-25T11:00:57.661Z,50.43
2023-04-25T11:05:00.622Z,49.46
2023-04-25T11:09:03.056Z,47.48
2023-04-25T11:13:05.912Z,48.51
2023-04-25T11:17:08.487Z,47.88
2023-04-25T11:21:11.321Z,47.46
2023-04-25T11:25:16.382Z,47.41
2023-04-25T11:29:18.424Z,45.94
2023-04-25T11:33:25.589Z,46.03
2023-04-25T11:37:27.962Z,46.41
2023-04-25T11:41:31.386Z,45.90
2023-04-25T11:45:33.632Z,46.92
2023-04-25T11:49:36.684Z,48.18
2023-04-25T11:53:42.279Z,48.64
2023-04-25T11:57:46.257Z,49.58
2023-04-25T12:01:50.796Z,51.07
2023-04-25T12:05:53.157Z,51.23
2023-04-25T12:09:55.717Z,51.31
2023-04-25T12:14:03.027Z,51.54
2023-04-25T12:18:05.047Z,50.74
2023-04-25T12:22:23.651Z,50.13
2023-04-25T12:26:26.426Z,49.78
2023-04-25T12:30:29.180Z,49.39
2023-04-25T12:34:33.175Z,47.74
2023-04-25T12:38:41.224Z,49.13
2023-04-25T12:42:43.249Z,46.88
2023-04-25T12:46:46.094Z,47.44
2023-04-25T12:50:50.138Z,46.05
2023-04-25T12:54:52.207Z,46.62
2023-04-25T12:58:54.781Z,45.82
2023-04-25T13:02:56.952Z,46.11
2023-04-25T13:06:59.089Z,45.51
2023-04-25T13:11:01.367Z,46.09
2023-04-25T13:15:03.745Z,46.69
2023-04-25T13:19:06.572Z,45.72
2023-04-25T13:23:08.651Z,49.73
2023-04-25T13:27:10.735Z,50.76
2023-04-25T13:31:12.772Z,47.53
2023-04-25T13:35:14.898Z,45.90
2023-04-25T13:39:17.044Z,45.44
2023-04-25T13:43:25.632Z,45.06
2023-04-25T13:47:28.205Z,43.78
2023-04-25T13:51:32.581Z,43.08
2023-04-25T13:55:37.695Z,42.95
2023-04-25T13:59:41.613Z,41.75
2023-04-25T14:03:43.814Z,42.58
2023-04-25T14:07:46.002Z,42.71
2023-04-25T14:11:48.040Z,43.75
2023-04-25T14:15:51.438Z,43.84
2023-04-25T14:19:53.518Z,43.92
2023-04-25T14:23:55.856Z,44.08
2023-04-25T14:27:57.835Z,44.44
2023-04-25T14:32:00.155Z,44.96
2023-04-25T14:36:02.184Z,43.87
2023-04-25T14:40:05.523Z,43.20
2023-04-25T14:44:07.600Z,43.89
2023-04-25T14:48:09.777Z,43.98
2023-04-25T14:52:11.918Z,43.88
2023-04-25T14:56:14.038Z,44.19
2023-04-25T15:00:17.379Z,43.57
2023-04-25T15:04:19.831Z,42.89
2023-04-25T15:08:22.080Z,44.11
2023-04-25T15:12:24.562Z,44.10
2023-04-25T15:16:27.280Z,44.21
2023-04-25T15:20:29.463Z,45.35
2023-04-25T15:24:31.672Z,45.76
2023-04-25T15:28:34.653Z,44.92
2023-04-25T15:32:36.706Z,44.45
2023-04-25T15:36:38.723Z,43.79
2023-04-25T15:40:41.235Z,44.44
2023-04-25T15:44:43.362Z,44.54
2023-04-25T15:48:45.949Z,44.96
2023-04-25T15:52:49.567Z,44.74
2023-04-25T15:56:51.596Z,44.60
2023-04-25T16:00:55.543Z,45.30
2023-04-25T16:04:57.950Z,45.28
2023-04-25T16:09:00.356Z,45.90
2023-04-25T16:13:02.530Z,45.07
2023-04-25T16:17:04.545Z,43.72
2023-04-25T16:21:06.643Z,43.09
2023-04-25T16:25:09.403Z,43.89
2023-04-25T16:29:12.598Z,44.39
2023-04-25T16:33:15.178Z,45.34
2023-04-25T16:37:17.270Z,45.99
2023-04-25T16:41:19.786Z,45.79
2023-04-25T16:45:22.180Z,45.98
2023-04-25T16:49:24.176Z,45.77
2023-04-25T16:53:26.725Z,46.09
2023-04-25T16:57:28.820Z,45.98
2023-04-25T17:01:31.099Z,45.18
2023-04-25T17:05:34.208Z,44.56
2023-04-25T17:09:36.692Z,44.86
2023-04-25T17:13:38.754Z,44.28
2023-04-25T17:17:40.934Z,43.78
2023-04-25T17:21:43.891Z,44.21
2023-04-25T17:25:46.178Z,45.31
2023-04-25T17:29:48.175Z,46.21
2023-04-25T17:33:50.593Z,46.27
2023-04-25T17:37:52.663Z,46.05
2023-04-25T17:41:54.750Z,46.08
2023-04-25T17:45:56.983Z,45.56
2023-04-25T17:49:59.033Z,45.09
2023-04-25T17:54:01.130Z,44.33
2023-04-25T17:58:03.173Z,44.46
2023-04-25T18:02:05.318Z,44.77
2023-04-25T18:06:07.332Z,45.22
2023-04-25T18:10:11.687Z,45.09
2023-04-25T18:14:14.847Z,45.49
2023-04-25T18:18:20.416Z,45.84
2023-04-25T18:22:22.607Z,46.31
2023-04-25T18:26:24.631Z,45.99
2023-04-25T18:30:26.902Z,45.91
2023-04-25T18:34:28.927Z,46.16
2023-04-25T18:38:35.834Z,46.34
2023-04-25T18:42:38.403Z,46.54
2023-04-25T18:46:43.613Z,47.03
2023-04-25T18:50:45.770Z,47.04
2023-04-25T18:54:48.051Z,47.59
2023-04-25T18:58:53.868Z,47.80
2023-04-25T19:03:03.207Z,48.02
2023-04-25T19:07:05.361Z,48.31
2023-04-25T19:11:18.154Z,48.49
2023-04-25T19:15:23.133Z,48.45
2023-04-25T19:19:27.238Z,48.71
2023-04-25T19:23:31.198Z,49.06
2023-04-25T19:27:33.588Z,49.55
2023-04-25T19:31:37.279Z,49.97
2023-04-25T19:35:39.461Z,50.15
2023-04-25T19:39:41.838Z,50.43
2023-04-25T19:43:43.917Z,50.48
2023-04-25T19:47:46.157Z,51.25
2023-04-25T19:51:48.188Z,51.33
2023-04-25T19:55:50.377Z,52.25
2023-04-25T19:59:52.528Z,51.93
2023-04-25T20:03:54.984Z,51.93
2023-04-25T20:07:57.193Z,52.26
2023-04-25T20:11:59.198Z,52.56
2023-04-25T20:16:02.725Z,52.91
2023-04-25T20:20:06.452Z,53.11
2023-04-25T20:24:08.601Z,53.36
2023-04-25T20:28:10.606Z,53.25
2023-04-25T20:32:12.896Z,53.48
2023-04-25T20:36:15.555Z,53.82
2023-04-25T20:40:17.575Z,53.98
2023-04-25T20:44:22.585Z,54.44
2023-04-25T20:48:24.700Z,55.06
2023-04-25T20:52:26.725Z,55.18
2023-04-25T20:56:28.746Z,56.27
2023-04-25T21:00:30.858Z,57.19
2023-04-25T21:04:32.983Z,58.26
2023-04-25T21:08:35.194Z,58.54
2023-04-25T21:12:37.269Z,59.64
2023-04-25T21:16:40.689Z,60.02
2023-04-25T21:20:42.756Z,60.56
2023-04-25T21:24:44.836Z,61.96
2023-04-25T21:28:47.051Z,63.22
2023-04-25T21:32:52.598Z,63.43
2023-04-25T21:36:54.715Z,63.43
2023-04-25T21:40:56.854Z,63.24
2023-04-25T21:44:58.857Z,63.19
2023-04-25T21:49:01.005Z,63.96
2023-04-25T21:53:03.688Z,64.38
2023-04-25T21:57:05.739Z,65.35
2023-04-25T22:01:07.790Z,65.46
2023-04-25T22:05:10.417Z,65.81
2023-04-25T22:09:12.977Z,66.32
2023-04-25T22:13:15.303Z,66.62
2023-04-25T22:17:17.931Z,66.10
2023-04-25T22:21:20.370Z,67.27
2023-04-25T22:25:22.649Z,67.55
2023-04-25T22:29:24.747Z,67.24
2023-04-25T22:33:27.410Z,68.32
2023-04-25T22:37:29.633Z,68.70
2023-04-25T22:41:32.102Z,69.24
2023-04-25T22:45:35.639Z,69.00
2023-04-25T22:49:37.691Z,70.20
2023-04-25T22:53:41.876Z,69.52
2023-04-25T22:57:44.034Z,70.17
2023-04-25T23:01:47.056Z,70.22
2023-04-25T23:05:49.517Z,69.72
2023-04-25T23:09:52.020Z,69.50
2023-04-25T23:13:54.032Z,69.29
2023-04-25T23:17:57.001Z,68.65
2023-04-25T23:21:59.853Z,69.00
2023-04-25T23:26:11.644Z,69.45
2023-04-25T23:30:15.264Z,70.50
2023-04-25T23:34:17.293Z,72.45
2023-04-25T23:38:20.770Z,73.11
2023-04-25T23:42:22.758Z,73.46
2023-04-25T23:46:25.851Z,73.76
2023-04-25T23:50:27.926Z,74.79
2023-04-25T23:54:29.942Z,75.13
2023-04-25T23:58:31.978Z,75.46
